createdAt,value
2022-11-30T00:02:00.775Z,99.90
2022-11-30T00:04:28.770Z,99.90
2022-11-30T00:06:57.456Z,99.90
2022-11-30T00:09:25.374Z,99.90
2022-11-30T00:11:53.502Z,99.90
2022-11-30T00:14:22.775Z,99.90
2022-11-30T00:16:50.797Z,99.90
2022-11-30T00:19:18.720Z,99.90
2022-11-30T00:21:46.837Z,99.90
2022-11-30T00:24:14.849Z,99.90
2022-11-30T00:26:42.729Z,99.90
2022-11-30T00:29:10.907Z,99.90
2022-11-30T00:31:40.427Z,99.90
2022-11-30T00:34:08.414Z,99.90
2022-11-30T00:36:36.447Z,99.90
2022-11-30T00:39:04.956Z,99.90
2022-11-30T00:41:32.869Z,99.90
2022-11-30T00:44:00.786Z,99.90
2022-11-30T00:46:28.910Z,99.90
2022-11-30T00:48:58.168Z,99.90
2022-11-30T00:51:26.537Z,99.90
2022-11-30T00:53:54.433Z,99.90
2022-11-30T00:56:24.825Z,99.90
2022-11-30T00:58:52.874Z,99.90
2022-11-30T01:01:20.754Z,99.90
2022-11-30T01:03:48.840Z,99.90
2022-11-30T01:06:18.036Z,99.90
2022-11-30T01:08:46.009Z,99.90
2022-11-30T01:11:17.206Z,99.90
2022-11-30T01:13:45.253Z,99.90
2022-11-30T01:16:15.965Z,99.90
2022-11-30T01:18:44.248Z,99.90
2022-11-30T01:21:16.256Z,99.90
2022-11-30T01:23:46.262Z,99.90
2022-11-30T01:26:15.109Z,99.90
2022-11-30T01:28:43.985Z,99.90
2022-11-30T01:31:14.598Z,99.90
2022-11-30T01:33:43.073Z,99.90
2022-11-30T01:36:14.308Z,99.90
2022-11-30T01:38:47.936Z,99.90
2022-11-30T01:41:19.836Z,99.90
2022-11-30T01:43:50.127Z,99.90
2022-11-30T01:46:35.308Z,99.90
2022-11-30T01:49:12.327Z,99.90
2022-11-30T01:51:44.013Z,99.90
2022-11-30T01:54:17.259Z,99.90
2022-11-30T01:56:49.529Z,99.90
2022-11-30T01:59:20.357Z,99.90
2022-11-30T02:01:48.704Z,99.90
2022-11-30T02:04:21.697Z,99.90
2022-11-30T02:06:50.503Z,99.90
2022-11-30T02:09:21.854Z,99.90
2022-11-30T02:11:50.621Z,99.90
2022-11-30T02:14:34.853Z,99.90
2022-11-30T02:17:12.834Z,99.90
2022-11-30T02:20:11.692Z,99.90
2022-11-30T02:22:58.540Z,99.90
2022-11-30T02:25:37.569Z,99.90
2022-11-30T02:28:25.364Z,99.90
2022-11-30T02:30:55.796Z,99.90
2022-11-30T02:33:28.997Z,99.90
2022-11-30T02:35:58.931Z,99.90
2022-11-30T02:38:28.480Z,99.90
2022-11-30T02:40:56.589Z,99.90
2022-11-30T02:43:29.217Z,99.90
2022-11-30T02:46:04.869Z,99.90
2022-11-30T02:48:43.918Z,99.90
2022-11-30T02:51:17.496Z,99.90
2022-11-30T02:53:46.095Z,99.90
2022-11-30T02:56:13.925Z,99.90
2022-11-30T02:58:42.274Z,99.90
2022-11-30T03:01:11.608Z,99.90
2022-11-30T03:03:39.447Z,99.90
2022-11-30T03:06:07.456Z,99.90
2022-11-30T03:08:35.333Z,99.90
2022-11-30T03:11:03.658Z,99.90
2022-11-30T03:13:31.760Z,99.90
2022-11-30T03:15:59.678Z,99.90
2022-11-30T03:18:28.871Z,99.90
2022-11-30T03:20:56.669Z,99.90
2022-11-30T03:23:24.728Z,99.90
2022-11-30T03:25:52.559Z,99.90
2022-11-30T03:28:20.402Z,99.90
2022-11-30T03:30:50.053Z,99.90
2022-11-30T03:33:18.305Z,99.90
2022-11-30T03:35:47.795Z,99.90
2022-11-30T03:38:15.693Z,99.90
2022-11-30T03:40:43.529Z,99.90
2022-11-30T03:43:11.359Z,99.90
2022-11-30T03:45:39.205Z,99.90
2022-11-30T03:48:08.342Z,99.90
2022-11-30T03:50:36.155Z,99.90
2022-11-30T03:53:05.394Z,99.90
2022-11-30T03:55:33.211Z,99.90
2022-11-30T03:58:01.078Z,99.90
2022-11-30T04:00:28.951Z,99.90
2022-11-30T04:02:57.870Z,99.90
2022-11-30T04:05:26.044Z,99.90
2022-11-30T04:07:54.014Z,99.90
2022-11-30T04:10:23.975Z,99.90
2022-11-30T04:12:52.145Z,99.90
2022-11-30T04:15:20.075Z,99.90
2022-11-30T04:17:48.165Z,99.90
2022-11-30T04:20:16.341Z,99.90
2022-11-30T04:22:44.441Z,99.90
2022-11-30T04:25:12.493Z,99.90
2022-11-30T04:27:41.915Z,99.90
2022-11-30T04:30:10.897Z,99.90
2022-11-30T04:32:38.869Z,99.90
2022-11-30T04:35:07.574Z,99.90
2022-11-30T04:37:35.470Z,99.90
2022-11-30T04:40:03.771Z,99.90
2022-11-30T04:42:31.665Z,99.90
2022-11-30T04:45:00.939Z,99.90
2022-11-30T04:47:28.828Z,99.90
2022-11-30T04:49:56.768Z,99.90
2022-11-30T04:52:24.760Z,99.90
2022-11-30T04:54:53.126Z,99.90
2022-11-30T04:57:21.384Z,99.90
2022-11-30T04:59:49.327Z,99.90
2022-11-30T05:02:18.775Z,99.90
2022-11-30T05:04:47.166Z,99.90
2022-11-30T05:07:15.409Z,99.90
2022-11-30T05:09:43.279Z,99.90
2022-11-30T05:12:11.170Z,99.90
2022-11-30T05:14:39.042Z,99.90
2022-11-30T05:17:06.913Z,99.90
2022-11-30T05:19:36.568Z,99.90
2022-11-30T05:22:04.581Z,99.90
2022-11-30T05:24:32.545Z,99.90
2022-11-30T05:27:00.619Z,99.90
2022-11-30T05:29:28.478Z,99.90
2022-11-30T05:31:56.400Z,99.90
2022-11-30T05:34:24.353Z,99.90
2022-11-30T05:36:53.563Z,99.90
2022-11-30T05:39:21.461Z,99.90
2022-11-30T05:41:49.377Z,99.90
2022-11-30T05:44:17.284Z,99.90
2022-11-30T05:46:45.580Z,99.90
2022-11-30T05:49:13.521Z,99.90
2022-11-30T05:51:42.137Z,99.90
2022-11-30T05:54:11.615Z,99.90
2022-11-30T05:56:39.503Z,99.90
2022-11-30T05:59:07.373Z,99.90
2022-11-30T06:01:35.383Z,99.90
2022-11-30T06:04:08.820Z,99.90
2022-11-30T06:06:37.066Z,99.90
2022-11-30T06:09:05.194Z,99.90
2022-11-30T06:11:34.472Z,99.90
2022-11-30T06:14:04.650Z,99.90
2022-11-30T06:16:32.552Z,99.90
2022-11-30T06:19:00.482Z,99.90
2022-11-30T06:21:28.387Z,99.90
2022-11-30T06:23:56.304Z,99.90
2022-11-30T06:26:24.468Z,99.90
2022-11-30T06:28:53.742Z,99.90
2022-11-30T06:31:21.706Z,99.90
2022-11-30T06:33:49.803Z,99.90
2022-11-30T06:36:22.912Z,99.90
2022-11-30T06:38:51.041Z,99.90
2022-11-30T06:41:19.157Z,99.90
2022-11-30T06:43:47.287Z,99.90
2022-11-30T06:46:16.669Z,99.90
2022-11-30T06:48:44.828Z,99.90
2022-11-30T06:51:12.814Z,99.90
2022-11-30T06:53:44.024Z,99.90
2022-11-30T06:56:12.813Z,99.90
2022-11-30T06:58:41.620Z,99.90
2022-11-30T07:01:12.395Z,99.90
2022-11-30T07:03:43.449Z,99.90
2022-11-30T07:06:13.644Z,99.90
2022-11-30T07:08:42.417Z,99.90
2022-11-30T07:11:11.460Z,99.90
2022-11-30T07:13:40.120Z,99.90
2022-11-30T07:16:11.206Z,99.90
2022-11-30T07:18:40.919Z,99.90
2022-11-30T07:21:10.000Z,99.90
2022-11-30T07:23:57.092Z,99.90
2022-11-30T07:26:26.212Z,99.90
2022-11-30T07:28:58.194Z,99.90
2022-11-30T07:31:28.506Z,99.90
2022-11-30T07:33:59.248Z,99.90
2022-11-30T07:36:29.692Z,99.90
2022-11-30T07:38:57.638Z,99.90
2022-11-30T07:41:26.133Z,99.90
2022-11-30T07:43:54.024Z,99.90
2022-11-30T07:46:22.167Z,99.90
2022-11-30T07:48:50.116Z,99.90
2022-11-30T07:51:21.870Z,99.90
2022-11-30T07:53:50.320Z,99.90
2022-11-30T07:56:20.470Z,99.90
2022-11-30T07:58:49.190Z,99.90
2022-11-30T08:01:19.742Z,99.90
2022-11-30T08:03:48.018Z,99.90
2022-11-30T08:06:19.741Z,99.90
2022-11-30T08:08:50.560Z,99.90
2022-11-30T08:11:20.767Z,99.90
2022-11-30T08:13:48.923Z,99.90
2022-11-30T08:16:19.796Z,99.90
2022-11-30T08:18:48.637Z,99.90
2022-11-30T08:21:18.926Z,99.90
2022-11-30T08:23:49.873Z,99.90
2022-11-30T08:26:19.380Z,99.90
2022-11-30T08:28:48.632Z,99.90
2022-11-30T08:31:18.400Z,99.90
2022-11-30T08:33:46.706Z,99.90
2022-11-30T08:36:16.036Z,99.90
2022-11-30T08:38:45.222Z,99.90
2022-11-30T08:41:16.850Z,99.90
2022-11-30T08:43:44.791Z,99.90
2022-11-30T08:46:49.562Z,99.90
2022-11-30T08:54:42.645Z,99.90
2022-11-30T08:57:12.348Z,99.90
2022-11-30T08:59:40.243Z,99.90
2022-11-30T09:02:10.373Z,99.90
2022-11-30T09:04:38.319Z,99.90
2022-11-30T09:07:06.446Z,99.90
2022-11-30T09:09:34.431Z,99.90
2022-11-30T09:12:02.451Z,99.90
2022-11-30T09:14:32.781Z,99.90
2022-11-30T09:17:00.669Z,99.90
2022-11-30T09:19:28.982Z,99.90
2022-11-30T09:21:56.943Z,99.90
2022-11-30T09:24:24.887Z,99.90
2022-11-30T09:26:56.311Z,99.90
2022-11-30T09:29:24.898Z,99.90
2022-11-30T09:31:54.167Z,99.90
2022-11-30T09:34:22.162Z,99.90
2022-11-30T09:36:50.072Z,99.90
2022-11-30T09:39:17.947Z,99.90
2022-11-30T09:42:12.120Z,99.90
2022-11-30T09:44:50.482Z,99.90
2022-11-30T09:47:40.044Z,99.90
2022-11-30T09:50:15.126Z,99.90
2022-11-30T09:52:46.060Z,99.90
2022-11-30T09:55:22.594Z,99.90
2022-11-30T09:57:55.306Z,99.90
2022-11-30T10:00:24.800Z,99.90
2022-11-30T10:02:56.660Z,99.90
2022-11-30T10:05:28.311Z,99.90
2022-11-30T10:08:19.538Z,99.90
2022-11-30T10:10:56.408Z,99.90
2022-11-30T10:13:41.508Z,99.90
2022-11-30T10:16:18.599Z,99.90
2022-11-30T10:19:00.154Z,99.90
2022-11-30T10:21:43.864Z,99.90
2022-11-30T10:24:20.990Z,99.90
2022-11-30T10:26:55.189Z,99.90
2022-11-30T10:29:30.763Z,99.90
2022-11-30T10:32:00.665Z,99.90
2022-11-30T10:34:35.589Z,99.90
2022-11-30T10:37:07.207Z,99.90
2022-11-30T10:39:41.725Z,99.90
2022-11-30T10:42:13.772Z,99.90
2022-11-30T10:44:47.443Z,99.90
2022-11-30T10:47:20.949Z,99.90
2022-11-30T10:49:52.719Z,99.90
2022-11-30T10:52:25.957Z,99.90
2022-11-30T10:55:02.300Z,99.90
2022-11-30T10:57:34.254Z,99.90
2022-11-30T11:00:06.468Z,99.90
2022-11-30T11:02:41.424Z,99.90
2022-11-30T11:05:17.175Z,99.90
2022-11-30T11:07:50.509Z,99.90
2022-11-30T11:10:21.441Z,99.90
2022-11-30T11:12:51.844Z,99.90
2022-11-30T11:15:23.298Z,99.90
2022-11-30T11:17:52.606Z,99.90
2022-11-30T11:20:34.846Z,99.90
2022-11-30T11:23:04.611Z,99.90
2022-11-30T11:25:35.647Z,99.90
2022-11-30T11:28:09.204Z,99.90
2022-11-30T11:30:38.421Z,99.90
2022-11-30T11:33:21.073Z,99.90
2022-11-30T11:35:52.363Z,99.90
2022-11-30T11:38:22.601Z,99.90
2022-11-30T11:41:13.470Z,99.90
2022-11-30T11:43:59.380Z,99.90
2022-11-30T11:46:32.288Z,99.90
2022-11-30T11:49:02.687Z,99.90
2022-11-30T11:51:34.747Z,99.90
2022-11-30T11:54:08.495Z,99.90
2022-11-30T11:56:38.329Z,99.90
2022-11-30T11:59:16.366Z,99.90
2022-11-30T12:02:00.434Z,99.90
2022-11-30T12:04:48.747Z,99.90
2022-11-30T12:07:35.508Z,99.90
2022-11-30T12:10:50.617Z,99.90
2022-11-30T12:13:16.474Z,99.90
2022-11-30T12:15:58.746Z,99.90
2022-11-30T12:18:35.089Z,99.90
2022-11-30T12:21:09.776Z,99.90
2022-11-30T12:23:54.160Z,99.90
2022-11-30T12:26:38.062Z,99.90
2022-11-30T12:29:32.244Z,99.90
2022-11-30T12:32:17.815Z,99.90
2022-11-30T12:35:00.345Z,99.90
2022-11-30T12:37:43.047Z,99.90
2022-11-30T12:40:29.935Z,99.90
2022-11-30T12:43:18.554Z,99.90
2022-11-30T12:45:48.852Z,99.90
2022-11-30T12:48:30.142Z,99.90
2022-11-30T12:51:17.640Z,99.90
2022-11-30T12:53:59.394Z,99.90
2022-11-30T12:56:45.996Z,99.90
2022-11-30T12:59:28.022Z,99.90
2022-11-30T13:02:19.406Z,99.90
2022-11-30T13:05:11.635Z,99.90
2022-11-30T13:07:57.758Z,99.90
2022-11-30T13:10:30.427Z,99.90
2022-11-30T13:13:04.990Z,99.90
2022-11-30T13:15:49.969Z,99.90
2022-11-30T13:18:28.260Z,99.90
2022-11-30T13:21:06.588Z,99.90
2022-11-30T13:23:38.917Z,99.90
2022-11-30T13:26:23.378Z,99.90
2022-11-30T13:29:25.851Z,99.90
2022-11-30T13:32:05.772Z,99.90
2022-11-30T13:34:34.543Z,99.90
2022-11-30T13:37:06.375Z,99.90
2022-11-30T13:39:50.921Z,99.90
2022-11-30T13:42:50.115Z,99.90
2022-11-30T13:45:34.997Z,99.90
2022-11-30T13:48:19.758Z,99.90
2022-11-30T13:50:50.086Z,99.90
2022-11-30T13:53:34.395Z,99.90
2022-11-30T13:56:08.647Z,99.90
2022-11-30T13:58:37.254Z,99.90
2022-11-30T14:01:26.628Z,99.90
2022-11-30T14:04:33.537Z,99.90
2022-11-30T14:10:02.825Z,99.90
2022-11-30T14:12:59.909Z,99.90
2022-11-30T14:15:44.228Z,99.90
2022-11-30T14:18:21.796Z,99.90
2022-11-30T14:20:54.006Z,99.90
2022-11-30T14:23:27.181Z,99.90
2022-11-30T14:25:59.091Z,99.90
2022-11-30T14:28:33.390Z,99.90
2022-11-30T14:31:01.881Z,99.90
2022-11-30T14:33:41.585Z,99.90
2022-11-30T14:36:11.873Z,99.90
2022-11-30T14:38:45.780Z,99.90
2022-11-30T14:41:25.668Z,99.90
2022-11-30T14:44:02.917Z,99.90
2022-11-30T14:46:37.289Z,99.90
2022-11-30T14:49:15.723Z,99.90
2022-11-30T14:51:51.227Z,99.90
2022-11-30T14:55:10.284Z,99.90
2022-11-30T14:57:51.683Z,99.90
2022-11-30T15:00:27.251Z,91.70
2022-11-30T15:03:04.720Z,92.50
2022-11-30T15:05:36.361Z,91.50
2022-11-30T15:08:04.983Z,93.50
2022-11-30T15:10:39.608Z,95.20
2022-11-30T15:13:36.424Z,94.40
2022-11-30T15:16:11.373Z,92.20
2022-11-30T15:18:40.518Z,93.30
2022-11-30T15:21:19.445Z,93.30
2022-11-30T15:23:51.134Z,95.10
2022-11-30T15:26:31.200Z,95.60
2022-11-30T15:29:04.144Z,94.00
2022-11-30T15:31:36.912Z,93.20
2022-11-30T15:34:07.259Z,95.70
2022-11-30T15:36:38.367Z,95.50
2022-11-30T15:39:10.264Z,94.70
2022-11-30T15:41:38.371Z,96.20
2022-11-30T15:44:06.721Z,97.80
2022-11-30T15:46:41.390Z,99.00
2022-11-30T15:49:18.507Z,99.90
2022-11-30T15:51:59.178Z,99.90
2022-11-30T15:54:47.951Z,99.90
2022-11-30T15:57:16.810Z,99.90
2022-11-30T15:59:45.343Z,99.90
2022-11-30T16:02:29.835Z,99.90
2022-11-30T16:05:25.828Z,99.90
2022-11-30T16:08:00.215Z,99.90
2022-11-30T16:10:31.379Z,99.90
2022-11-30T16:12:59.750Z,99.90
2022-11-30T16:15:29.703Z,99.90
2022-11-30T16:18:01.449Z,99.90
2022-11-30T16:20:29.537Z,99.90
2022-11-30T16:23:05.352Z,99.90
2022-11-30T16:25:33.971Z,99.90
2022-11-30T16:28:02.975Z,99.90
2022-11-30T16:30:32.328Z,99.90
2022-11-30T16:33:00.624Z,99.90
2022-11-30T16:35:36.357Z,99.90
2022-11-30T16:38:06.678Z,99.90
2022-11-30T16:40:38.826Z,99.90
2022-11-30T16:43:11.400Z,99.90
2022-11-30T16:45:41.487Z,99.90
2022-11-30T16:48:09.825Z,99.90
2022-11-30T16:50:39.205Z,99.90
2022-11-30T16:53:28.674Z,99.90
2022-11-30T16:55:56.991Z,99.90
2022-11-30T16:58:26.813Z,99.90
2022-11-30T17:01:05.017Z,99.90
2022-11-30T17:03:39.982Z,99.90
2022-11-30T17:06:41.369Z,99.90
2022-11-30T17:09:14.086Z,99.90
2022-11-30T17:11:43.128Z,99.90
2022-11-30T17:14:28.680Z,99.90
2022-11-30T17:17:24.904Z,99.90
2022-11-30T17:19:54.935Z,99.90
2022-11-30T17:22:27.286Z,99.90
2022-11-30T17:24:58.775Z,99.90
2022-11-30T17:27:27.012Z,99.90
2022-11-30T17:29:55.744Z,99.90
2022-11-30T17:32:27.486Z,99.90
2022-11-30T17:34:55.635Z,99.90
2022-11-30T17:37:24.763Z,99.90
2022-11-30T17:39:53.299Z,99.90
2022-11-30T17:42:22.935Z,99.90
2022-11-30T17:44:51.133Z,99.90
2022-11-30T17:47:19.563Z,99.90
2022-11-30T17:49:47.702Z,99.90
2022-11-30T17:52:16.113Z,99.90
2022-11-30T17:54:45.283Z,99.90
2022-11-30T17:57:13.616Z,99.90
2022-11-30T17:59:43.189Z,99.90
2022-11-30T18:02:12.804Z,99.90
2022-11-30T18:04:41.206Z,99.90
2022-11-30T18:07:09.352Z,99.90
2022-11-30T18:09:42.306Z,99.90
2022-11-30T18:12:11.749Z,99.90
2022-11-30T18:14:39.907Z,99.90
2022-11-30T18:17:09.583Z,99.90
2022-11-30T18:19:37.781Z,99.90
2022-11-30T18:22:05.826Z,99.90
2022-11-30T18:24:34.006Z,99.90
2022-11-30T18:27:02.092Z,99.90
2022-11-30T18:29:32.099Z,99.90
2022-11-30T18:32:00.258Z,99.90
2022-11-30T18:34:30.146Z,99.90
2022-11-30T18:36:58.723Z,99.90
2022-11-30T18:39:26.973Z,99.90
2022-11-30T18:41:55.030Z,99.90
2022-11-30T18:44:23.235Z,99.90
2022-11-30T18:46:51.217Z,99.90
2022-11-30T18:49:21.289Z,99.90
2022-11-30T18:51:50.825Z,99.90
2022-11-30T18:54:19.202Z,99.90
2022-11-30T18:56:47.524Z,99.90
2022-11-30T18:59:16.665Z,99.90
2022-11-30T19:01:46.481Z,99.90
2022-11-30T19:04:14.743Z,99.90
2022-11-30T19:06:43.837Z,99.90
2022-11-30T19:09:15.611Z,99.90
2022-11-30T19:11:45.027Z,99.90
2022-11-30T19:14:16.886Z,99.90
2022-11-30T19:16:46.546Z,99.90
2022-11-30T19:19:16.514Z,99.90
2022-11-30T19:21:47.686Z,99.90
2022-11-30T19:24:17.631Z,99.90
2022-11-30T19:26:46.266Z,99.90
2022-11-30T19:29:14.213Z,99.90
2022-11-30T19:31:42.392Z,99.90
2022-11-30T19:34:12.847Z,99.90
2022-11-30T19:36:41.637Z,99.90
2022-11-30T19:39:11.565Z,99.90
2022-11-30T19:41:41.196Z,99.90
2022-11-30T19:44:14.169Z,99.90
2022-11-30T19:46:42.956Z,99.90
2022-11-30T19:49:11.775Z,99.90
2022-11-30T19:51:40.301Z,99.90
2022-11-30T19:54:08.397Z,99.90
2022-11-30T19:56:38.850Z,99.90
2022-11-30T19:59:08.510Z,99.90
2022-11-30T20:01:36.684Z,99.90
2022-11-30T20:04:05.477Z,99.90
2022-11-30T20:06:36.443Z,99.90
2022-11-30T20:09:05.258Z,99.90
2022-11-30T20:11:33.849Z,99.90
2022-11-30T20:14:02.059Z,99.90
2022-11-30T20:16:31.657Z,99.90
2022-11-30T20:19:01.905Z,99.90
2022-11-30T20:21:32.951Z,99.90
2022-11-30T20:24:04.471Z,99.90
2022-11-30T20:26:35.624Z,99.90
2022-11-30T20:29:07.105Z,99.90
2022-11-30T20:31:38.191Z,99.90
2022-11-30T20:34:08.272Z,99.90
2022-11-30T20:36:36.974Z,99.90
2022-11-30T20:39:05.925Z,99.90
2022-11-30T20:41:34.613Z,99.90
2022-11-30T20:44:02.793Z,99.90
2022-11-30T20:46:33.251Z,99.90
2022-11-30T20:49:04.822Z,99.90
2022-11-30T20:51:34.888Z,99.90
2022-11-30T20:54:05.785Z,99.90
2022-11-30T20:56:35.382Z,99.90
2022-11-30T20:59:06.067Z,99.90
2022-11-30T21:01:34.645Z,99.90
2022-11-30T21:04:04.736Z,99.90
2022-11-30T21:06:33.490Z,99.90
2022-11-30T21:09:01.867Z,99.90
2022-11-30T21:11:30.885Z,99.90
2022-11-30T21:13:59.501Z,99.90
2022-11-30T21:16:29.832Z,99.90
2022-11-30T21:18:59.439Z,99.90
2022-11-30T21:21:33.973Z,99.90
2022-11-30T21:24:04.279Z,99.90
2022-11-30T21:26:34.519Z,99.90
2022-11-30T21:29:07.589Z,99.90
2022-11-30T21:31:35.972Z,99.90
2022-11-30T21:34:05.601Z,99.90
2022-11-30T21:36:35.306Z,99.90
2022-11-30T21:39:06.692Z,99.90
2022-11-30T21:41:36.318Z,99.90
2022-11-30T21:44:04.855Z,99.90
2022-11-30T21:46:33.353Z,99.90
2022-11-30T21:49:07.245Z,99.90
2022-11-30T21:51:37.339Z,99.90
2022-11-30T21:54:07.804Z,99.90
2022-11-30T21:56:38.010Z,99.90
2022-11-30T21:59:08.109Z,99.90
2022-11-30T22:01:39.128Z,99.90
2022-11-30T22:04:08.566Z,99.90
2022-11-30T22:06:39.914Z,99.90
2022-11-30T22:09:12.005Z,99.90
2022-11-30T22:11:41.685Z,99.90
2022-11-30T22:14:13.478Z,99.90
2022-11-30T22:16:41.901Z,99.90
2022-11-30T22:19:10.220Z,99.90
2022-11-30T22:21:42.156Z,99.90
2022-11-30T22:24:14.772Z,99.90
2022-11-30T22:26:44.238Z,99.90
2022-11-30T22:29:14.684Z,99.90
2022-11-30T22:31:44.541Z,99.90
2022-11-30T22:34:12.927Z,99.90
2022-11-30T22:36:44.233Z,99.90
2022-11-30T22:39:14.256Z,99.90
2022-11-30T22:41:45.124Z,99.90
2022-11-30T22:44:14.669Z,99.90
2022-11-30T22:46:44.144Z,99.90
2022-11-30T22:49:19.918Z,99.90
2022-11-30T22:51:51.125Z,99.90
2022-11-30T22:54:20.055Z,99.90
2022-11-30T22:56:48.191Z,99.90
2022-11-30T22:59:17.168Z,99.90
2022-11-30T23:01:47.261Z,99.90
2022-11-30T23:04:17.849Z,99.90
2022-11-30T23:06:47.444Z,99.90
2022-11-30T23:09:20.006Z,99.90
2022-11-30T23:11:48.834Z,99.90
2022-11-30T23:14:17.247Z,99.90
2022-11-30T23:16:46.381Z,99.90
2022-11-30T23:19:15.061Z,99.90
2022-11-30T23:21:45.846Z,99.90
2022-11-30T23:24:17.421Z,99.90
2022-11-30T23:26:46.318Z,99.90
2022-11-30T23:29:16.338Z,99.90
2022-11-30T23:31:46.259Z,99.90
2022-11-30T23:34:16.584Z,99.90
2022-11-30T23:36:44.947Z,99.90
2022-11-30T23:39:15.389Z,99.90
2022-11-30T23:41:45.079Z,99.90
2022-11-30T23:44:13.663Z,99.90
2022-11-30T23:46:42.268Z,99.90
2022-11-30T23:49:10.576Z,99.90
2022-11-30T23:51:38.693Z,99.90
2022-11-30T23:54:07.070Z,99.90
2022-11-30T23:56:35.350Z,99.90
2022-11-30T23:59:05.346Z,99.90
